createdAt,value
2022-12-17T00:03:56.879Z,0
2022-12-17T00:09:00.557Z,0
2022-12-17T00:14:04.733Z,0
2022-12-17T00:19:08.909Z,0
2022-12-17T00:24:13.101Z,0
2022-12-17T00:29:17.222Z,0
2022-12-17T00:34:21.396Z,0
2022-12-17T00:39:25.550Z,0
2022-12-17T00:44:29.760Z,0
2022-12-17T00:49:33.918Z,0
2022-12-17T00:54:38.067Z,0
2022-12-17T00:59:42.238Z,0
2022-12-17T01:04:46.375Z,0
2022-12-17T01:09:50.540Z,0
2022-12-17T01:14:54.876Z,0
2022-12-17T01:19:58.920Z,0
2022-12-17T01:25:03.059Z,0
2022-12-17T01:30:07.212Z,0
2022-12-17T01:35:11.394Z,0
2022-12-17T01:45:19.727Z,0
2022-12-17T01:50:23.893Z,0
2022-12-17T01:55:28.084Z,0
2022-12-17T02:00:30.333Z,0
2022-12-17T02:05:34.523Z,0
2022-12-17T02:10:38.683Z,0
2022-12-17T02:15:42.849Z,0
2022-12-17T02:20:47.024Z,0
2022-12-17T02:25:51.199Z,0
2022-12-17T02:30:55.332Z,0
2022-12-17T02:35:59.519Z,0
2022-12-17T02:41:03.687Z,0
2022-12-17T02:46:07.947Z,0
2022-12-17T02:51:12.040Z,0
2022-12-17T02:56:16.406Z,0
2022-12-17T03:01:20.525Z,0
2022-12-17T03:06:24.541Z,0
2022-12-17T03:11:28.730Z,0
2022-12-17T03:16:37.262Z,0
2022-12-17T03:21:37.052Z,0
2022-12-17T03:26:41.200Z,0
2022-12-17T03:31:45.376Z,0
2022-12-17T03:36:49.543Z,0
2022-12-17T03:41:53.731Z,0
2022-12-17T03:46:57.882Z,0
2022-12-17T03:52:02.058Z,0
2022-12-17T03:57:06.215Z,0
2022-12-17T04:02:10.608Z,0
2022-12-17T04:07:14.555Z,0
2022-12-17T04:12:18.765Z,0
2022-12-17T04:17:22.894Z,0
2022-12-17T04:22:27.033Z,0
2022-12-17T04:27:31.199Z,0
2022-12-17T04:32:35.738Z,0
2022-12-17T04:37:39.575Z,0
2022-12-17T04:42:43.728Z,0
2022-12-17T04:47:47.887Z,0
2022-12-17T04:52:52.082Z,0
2022-12-17T04:57:56.253Z,0
2022-12-17T05:03:00.560Z,0
2022-12-17T05:08:04.585Z,0
2022-12-17T05:13:08.769Z,0
2022-12-17T05:18:12.911Z,0
2022-12-17T05:23:17.081Z,0
2022-12-17T05:28:21.264Z,0
2022-12-17T05:33:25.423Z,0
2022-12-17T05:38:29.574Z,0
2022-12-17T05:43:34.126Z,0
2022-12-17T05:48:37.909Z,0
2022-12-17T05:53:42.094Z,0
2022-12-17T05:58:46.279Z,0
2022-12-17T06:03:50.597Z,0
2022-12-17T06:08:54.600Z,0
2022-12-17T06:13:58.778Z,0
2022-12-17T06:19:02.942Z,0
2022-12-17T06:24:07.127Z,0
2022-12-17T06:29:11.244Z,0
2022-12-17T06:34:15.439Z,0
2022-12-17T06:39:19.593Z,0
2022-12-17T06:44:23.777Z,0
2022-12-17T06:49:27.994Z,0
2022-12-17T06:54:32.106Z,0
2022-12-17T06:59:36.276Z,0
2022-12-17T07:04:40.456Z,0
2022-12-17T07:09:44.637Z,2
2022-12-17T07:14:48.782Z,6
2022-12-17T07:19:52.958Z,14
2022-12-17T07:24:57.126Z,25
2022-12-17T07:29:59.385Z,43
2022-12-17T07:35:03.564Z,70
2022-12-17T07:40:07.749Z,100
2022-12-17T07:45:11.885Z,134
2022-12-17T07:50:16.069Z,182
2022-12-17T07:55:20.221Z,235
2022-12-17T08:00:24.429Z,293
2022-12-17T08:05:28.600Z,341
2022-12-17T08:10:32.738Z,424
2022-12-17T08:15:36.928Z,434
2022-12-17T08:20:41.109Z,480
2022-12-17T08:25:45.249Z,512
2022-12-17T08:30:49.481Z,540
2022-12-17T08:35:53.600Z,576
2022-12-17T08:40:57.731Z,662
2022-12-17T08:46:02.006Z,744
2022-12-17T08:51:06.118Z,724
2022-12-17T08:56:10.243Z,767
2022-12-17T09:01:14.633Z,762
2022-12-17T09:06:18.599Z,746
2022-12-17T09:11:22.802Z,775
2022-12-17T09:16:26.958Z,772
2022-12-17T09:21:31.095Z,796
2022-12-17T09:26:35.300Z,803
2022-12-17T09:31:39.448Z,808
2022-12-17T09:36:49.556Z,821
2022-12-17T09:41:47.779Z,827
2022-12-17T09:46:51.962Z,835
2022-12-17T09:51:56.098Z,846
2022-12-17T09:57:00.326Z,861
2022-12-17T10:02:04.637Z,866
2022-12-17T10:07:08.662Z,880
2022-12-17T10:12:12.829Z,887
2022-12-17T10:17:16.988Z,899
2022-12-17T10:22:21.150Z,914
2022-12-17T10:27:25.289Z,917
2022-12-17T10:32:29.483Z,922
2022-12-17T10:37:33.711Z,933
2022-12-17T10:42:37.827Z,932
2022-12-17T10:47:41.994Z,932
2022-12-17T10:52:46.157Z,942
2022-12-17T10:57:50.350Z,950
2022-12-17T11:02:54.750Z,950
2022-12-17T11:07:58.652Z,952
2022-12-17T11:13:02.835Z,955
2022-12-17T11:18:11.414Z,948
2022-12-17T11:23:11.201Z,945
2022-12-17T11:28:15.367Z,947
2022-12-17T11:33:19.524Z,945
2022-12-17T11:38:23.674Z,945
2022-12-17T11:43:27.847Z,947
2022-12-17T11:48:32.030Z,950
2022-12-17T11:53:36.202Z,950
2022-12-17T11:58:40.478Z,956
2022-12-17T12:03:44.687Z,965
2022-12-17T12:08:48.957Z,970
2022-12-17T12:13:52.871Z,972
2022-12-17T12:18:57.006Z,973
2022-12-17T12:24:01.199Z,982
2022-12-17T12:29:05.388Z,999
2022-12-17T12:34:09.524Z,1010
2022-12-17T12:39:13.687Z,1005
2022-12-17T12:44:17.888Z,998
2022-12-17T12:49:22.027Z,996
2022-12-17T12:54:26.223Z,982
2022-12-17T12:59:28.462Z,976
2022-12-17T13:04:32.672Z,968
2022-12-17T13:09:36.822Z,957
2022-12-17T13:14:40.972Z,960
2022-12-17T13:19:45.155Z,947
2022-12-17T13:24:49.329Z,925
2022-12-17T13:29:51.607Z,910
2022-12-17T13:34:53.871Z,892
2022-12-17T13:39:58.023Z,868
2022-12-17T13:45:02.222Z,847
2022-12-17T13:50:34.869Z,823
2022-12-17T13:55:10.551Z,801
2022-12-17T14:00:14.686Z,771
2022-12-17T14:05:18.902Z,746
2022-12-17T14:10:23.027Z,720
2022-12-17T14:15:27.209Z,691
2022-12-17T14:20:31.367Z,660
2022-12-17T14:25:35.529Z,628
2022-12-17T14:30:50.890Z,595
2022-12-17T14:35:43.962Z,560
2022-12-17T14:40:48.008Z,520
2022-12-17T14:45:52.285Z,480
2022-12-17T14:50:56.340Z,436
2022-12-17T14:56:00.527Z,387
2022-12-17T15:01:04.847Z,338
2022-12-17T15:06:08.887Z,287
2022-12-17T15:11:13.018Z,236
2022-12-17T15:16:17.315Z,186
2022-12-17T15:21:21.372Z,140
2022-12-17T15:26:27.975Z,100
2022-12-17T15:31:35.181Z,67
2022-12-17T15:36:33.874Z,40
2022-12-17T15:41:38.066Z,23
2022-12-17T15:46:42.319Z,11
2022-12-17T15:51:46.400Z,5
2022-12-17T15:56:50.543Z,2
2022-12-17T16:01:54.863Z,0
2022-12-17T16:06:58.886Z,0
2022-12-17T16:12:03.036Z,0
2022-12-17T16:17:07.230Z,0
2022-12-17T16:22:11.453Z,0
2022-12-17T16:27:15.545Z,0
2022-12-17T16:32:19.731Z,0
2022-12-17T16:37:23.872Z,0
2022-12-17T16:42:28.122Z,0
2022-12-17T16:52:36.427Z,0
2022-12-17T16:57:40.548Z,0
2022-12-17T17:02:49.981Z,0
2022-12-17T17:07:48.941Z,0
2022-12-17T17:12:53.104Z,0
2022-12-17T17:18:01.790Z,0
2022-12-17T17:23:01.444Z,0
2022-12-17T17:28:05.610Z,0
2022-12-17T17:33:09.740Z,0
2022-12-17T17:38:13.928Z,0
2022-12-17T17:43:18.118Z,0
2022-12-17T17:48:22.256Z,0
2022-12-17T17:53:26.453Z,0
2022-12-17T17:58:30.602Z,0
2022-12-17T18:03:34.866Z,0
2022-12-17T18:08:39.222Z,0
2022-12-17T18:13:43.145Z,0
2022-12-17T18:18:47.280Z,0
2022-12-17T18:23:51.446Z,0
2022-12-17T18:28:55.624Z,0
2022-12-17T18:33:59.927Z,0
2022-12-17T18:39:03.952Z,0
2022-12-17T18:44:08.180Z,0
2022-12-17T18:49:12.301Z,0
2022-12-17T18:54:16.465Z,0
2022-12-17T18:59:24.239Z,0
2022-12-17T19:04:22.947Z,0
2022-12-17T19:09:27.074Z,0
2022-12-17T19:14:31.245Z,0
2022-12-17T19:19:35.462Z,0
2022-12-17T19:24:39.599Z,0
2022-12-17T19:29:47.651Z,0
2022-12-17T19:34:47.951Z,0
2022-12-17T19:39:52.090Z,0
2022-12-17T19:44:56.309Z,0
2022-12-17T19:50:00.469Z,0
2022-12-17T19:55:04.646Z,0
2022-12-17T20:00:08.787Z,0
2022-12-17T20:05:12.947Z,0
2022-12-17T20:10:17.132Z,0
2022-12-17T20:15:21.342Z,0
2022-12-17T20:20:25.514Z,0
2022-12-17T20:25:29.632Z,0
2022-12-17T20:30:33.820Z,0
2022-12-17T20:35:38.004Z,0
2022-12-17T20:40:42.164Z,0
2022-12-17T20:45:46.360Z,0
2022-12-17T20:50:50.526Z,0
2022-12-17T21:00:58.918Z,0
2022-12-17T21:06:03.005Z,0
2022-12-17T21:11:07.196Z,0
2022-12-17T21:16:11.337Z,0
2022-12-17T21:21:15.524Z,0
2022-12-17T21:26:20.741Z,0
2022-12-17T21:31:23.918Z,0
2022-12-17T21:36:28.262Z,0
2022-12-17T21:41:32.217Z,0
2022-12-17T21:46:36.464Z,0
2022-12-17T21:51:40.563Z,0
2022-12-17T21:56:44.750Z,0
2022-12-17T22:01:49.274Z,0
2022-12-17T22:07:05.247Z,0
2022-12-17T22:11:57.251Z,0
2022-12-17T22:17:01.378Z,0
2022-12-17T22:22:05.592Z,0
2022-12-17T22:32:13.890Z,0
2022-12-17T22:40:24.397Z,0
2022-12-17T22:44:42.077Z,0
2022-12-17T22:47:26.391Z,0
2022-12-17T22:52:30.592Z,0
2022-12-17T22:57:38.030Z,0
2022-12-17T23:02:39.015Z,0
2022-12-17T23:07:43.127Z,0
2022-12-17T23:12:47.317Z,0
2022-12-17T23:17:51.454Z,0
2022-12-17T23:22:55.780Z,0
2022-12-17T23:27:59.776Z,0
2022-12-17T23:33:03.941Z,0
2022-12-17T23:38:08.112Z,0
2022-12-17T23:48:16.453Z,0
2022-12-17T23:53:20.661Z,0
2022-12-17T23:58:24.792Z,0
